createdAt,value
2019-01-21T00:02:08.849Z,-5.52
2019-01-21T00:04:40.308Z,-5.53
2019-01-21T00:07:11.542Z,-5.53
2019-01-21T00:09:42.886Z,-5.57
2019-01-21T00:12:16.976Z,-5.68
2019-01-21T00:14:50.698Z,-5.74
2019-01-21T00:19:54.901Z,-5.88
2019-01-21T00:22:26.171Z,-5.84
2019-01-21T00:24:57.734Z,-6.00
2019-01-21T00:27:30.705Z,-6.13
2019-01-21T00:30:02.248Z,-6.13
2019-01-21T00:32:34.350Z,-6.15
2019-01-21T00:35:06.699Z,-6.20
2019-01-21T00:37:38.023Z,-6.26
2019-01-21T00:40:10.569Z,-6.31
2019-01-21T00:42:42.139Z,-6.37
2019-01-21T00:45:13.628Z,-6.39
2019-01-21T00:47:45.271Z,-6.34
2019-01-21T00:50:16.786Z,-6.25
2019-01-21T00:52:48.229Z,-6.31
2019-01-21T00:55:20.495Z,-6.42
2019-01-21T00:57:51.593Z,-6.60
2019-01-21T01:00:24.805Z,-6.64
2019-01-21T01:02:56.387Z,-6.57
2019-01-21T01:05:27.701Z,-6.51
2019-01-21T01:07:58.860Z,-6.40
2019-01-21T01:10:30.892Z,-6.32
2019-01-21T01:13:09.098Z,-6.28
2019-01-21T01:15:40.324Z,-6.24
2019-01-21T01:18:11.417Z,-6.21
2019-01-21T01:20:42.607Z,-6.22
2019-01-21T01:23:13.990Z,-6.21
2019-01-21T01:25:45.147Z,-6.30
2019-01-21T01:28:16.600Z,-6.48
2019-01-21T01:30:47.979Z,-6.79
2019-01-21T01:33:19.232Z,-7.01
2019-01-21T01:35:50.304Z,-7.18
2019-01-21T01:38:21.517Z,-7.36
2019-01-21T01:40:52.853Z,-7.35
2019-01-21T01:43:24.242Z,-7.42
2019-01-21T01:45:55.933Z,-7.28
2019-01-21T01:48:27.241Z,-7.31
2019-01-21T01:50:59.804Z,-7.34
2019-01-21T01:53:31.443Z,-7.15
2019-01-21T01:56:03.003Z,-7.09
2019-01-21T01:58:34.217Z,-7.08
2019-01-21T02:01:06.391Z,-7.06
2019-01-21T02:03:37.698Z,-6.99
2019-01-21T02:06:08.765Z,-6.96
2019-01-21T02:08:40.144Z,-6.92
2019-01-21T02:11:11.242Z,-6.92
2019-01-21T02:13:42.835Z,-6.92
2019-01-21T02:16:16.053Z,-6.90
2019-01-21T02:18:47.354Z,-6.88
2019-01-21T02:21:20.972Z,-7.00
2019-01-21T02:23:55.938Z,-7.21
2019-01-21T02:26:30.251Z,-7.38
2019-01-21T02:29:07.795Z,-7.61
2019-01-21T02:32:09.702Z,-7.67
2019-01-21T02:35:17.077Z,-7.64
2019-01-21T02:38:20.604Z,-7.64
2019-01-21T02:41:35.419Z,-7.76
2019-01-21T02:44:33.761Z,-7.85
2019-01-21T02:47:50.054Z,-7.78
2019-01-21T02:50:46.248Z,-7.87
2019-01-21T02:53:43.851Z,-7.92
2019-01-21T02:56:56.713Z,-7.86
2019-01-21T02:59:52.458Z,-7.84
2019-01-21T03:02:48.873Z,-7.87
2019-01-21T03:06:15.989Z,-8.06
2019-01-21T03:09:14.002Z,-8.02
2019-01-21T03:12:31.290Z,-8.14
2019-01-21T03:15:46.315Z,-8.34
2019-01-21T03:19:02.635Z,-8.41
2019-01-21T03:22:25.942Z,-8.47
2019-01-21T03:25:36.971Z,-8.41
2019-01-21T03:28:45.353Z,-8.39
2019-01-21T03:31:52.624Z,-8.34
2019-01-21T03:35:03.504Z,-8.31
2019-01-21T03:38:24.165Z,-8.19
2019-01-21T03:41:26.353Z,-8.19
2019-01-21T03:44:20.652Z,-8.15
2019-01-21T03:47:42.851Z,-7.99
2019-01-21T03:50:39.866Z,-7.99
2019-01-21T03:53:54.897Z,-7.94
2019-01-21T03:56:59.550Z,-7.83
2019-01-21T03:59:56.689Z,-7.78
2019-01-21T04:03:05.547Z,-7.71
2019-01-21T04:06:10.007Z,-7.66
2019-01-21T04:09:36.528Z,-7.66
2019-01-21T04:12:50.528Z,-7.52
2019-01-21T04:15:39.404Z,-7.45
2019-01-21T04:18:40.030Z,-7.40
2019-01-21T04:21:56.765Z,-7.42
2019-01-21T04:25:11.956Z,-7.37
2019-01-21T04:28:20.075Z,-7.33
2019-01-21T04:31:41.396Z,-7.23
2019-01-21T04:35:02.728Z,-7.30
2019-01-21T04:38:05.370Z,-7.22
2019-01-21T04:41:13.341Z,-7.19
2019-01-21T04:44:25.905Z,-7.16
2019-01-21T04:47:17.787Z,-7.11
2019-01-21T04:50:35.680Z,-7.12
2019-01-21T04:53:37.932Z,-7.04
2019-01-21T04:56:38.424Z,-6.98
2019-01-21T04:59:55.710Z,-6.92
2019-01-21T05:03:17.083Z,-6.85
2019-01-21T05:06:56.829Z,-6.87
2019-01-21T05:10:11.964Z,-6.97
2019-01-21T05:13:08.370Z,-6.94
2019-01-21T05:16:15.383Z,-6.84
2019-01-21T05:19:17.893Z,-6.76
2019-01-21T05:22:27.534Z,-6.73
2019-01-21T05:25:48.440Z,-6.64
2019-01-21T05:29:08.808Z,-6.57
2019-01-21T05:32:17.731Z,-6.64
2019-01-21T05:35:23.068Z,-6.59
2019-01-21T05:38:31.585Z,-6.55
2019-01-21T05:41:46.413Z,-6.59
2019-01-21T05:44:59.441Z,-6.62
2019-01-21T05:48:17.158Z,-6.56
2019-01-21T05:51:43.589Z,-6.52
2019-01-21T05:54:58.494Z,-6.53
2019-01-21T05:58:02.307Z,-6.48
2019-01-21T06:01:05.002Z,-6.51
2019-01-21T06:04:13.811Z,-6.47
2019-01-21T06:07:13.626Z,-6.46
2019-01-21T06:10:14.614Z,-6.45
2019-01-21T06:13:22.034Z,-6.37
2019-01-21T06:16:33.153Z,-6.37
2019-01-21T06:19:48.175Z,-6.43
2019-01-21T06:22:51.381Z,-6.51
2019-01-21T06:25:55.657Z,-6.50
2019-01-21T06:28:59.422Z,-6.44
2019-01-21T06:32:06.646Z,-6.39
2019-01-21T06:35:30.463Z,-6.34
2019-01-21T06:38:42.465Z,-6.28
2019-01-21T06:41:42.718Z,-6.20
2019-01-21T06:44:41.836Z,-6.16
2019-01-21T06:47:54.782Z,-6.15
2019-01-21T06:50:50.572Z,-6.29
2019-01-21T06:53:57.842Z,-6.34
2019-01-21T06:57:00.794Z,-6.32
2019-01-21T07:00:17.555Z,-6.32
2019-01-21T07:03:30.255Z,-6.34
2019-01-21T07:06:40.897Z,-6.32
2019-01-21T07:09:46.842Z,-6.31
2019-01-21T07:13:05.163Z,-6.34
2019-01-21T07:16:13.439Z,-6.40
2019-01-21T07:19:22.805Z,-6.42
2019-01-21T07:22:17.193Z,-6.42
2019-01-21T07:25:21.274Z,-6.45
2019-01-21T07:28:28.450Z,-6.49
2019-01-21T07:31:37.370Z,-6.40
2019-01-21T07:35:10.424Z,-6.47
2019-01-21T07:38:11.960Z,-6.53
2019-01-21T07:41:32.391Z,-6.49
2019-01-21T07:44:36.783Z,-6.47
2019-01-21T07:47:55.042Z,-6.30
2019-01-21T07:50:56.184Z,-6.32
2019-01-21T07:54:17.265Z,-6.50
2019-01-21T07:57:25.963Z,-6.55
2019-01-21T08:00:12.036Z,-6.50
2019-01-21T08:03:25.781Z,-6.48
2019-01-21T08:06:32.583Z,-6.60
2019-01-21T08:09:34.620Z,-6.60
2019-01-21T08:12:31.750Z,-6.54
2019-01-21T08:15:36.581Z,-6.51
2019-01-21T08:18:59.119Z,-6.62
2019-01-21T08:22:05.241Z,-6.63
2019-01-21T08:25:15.995Z,-6.60
2019-01-21T08:28:17.312Z,-6.60
2019-01-21T08:31:25.978Z,-6.64
2019-01-21T08:34:44.140Z,-6.60
2019-01-21T08:38:08.341Z,-6.68
2019-01-21T08:41:17.729Z,-6.83
2019-01-21T08:44:12.644Z,-6.81
2019-01-21T08:47:11.673Z,-6.65
2019-01-21T08:50:32.638Z,-6.55
2019-01-21T08:54:05.700Z,-6.54
2019-01-21T08:57:08.739Z,-6.43
2019-01-21T09:00:08.457Z,-6.38
2019-01-21T09:03:21.715Z,-6.28
2019-01-21T09:06:34.782Z,-6.20
2019-01-21T09:09:45.044Z,-6.11
2019-01-21T09:13:11.924Z,-6.13
2019-01-21T09:15:55.264Z,-6.17
2019-01-21T09:19:10.254Z,-6.21
2019-01-21T09:22:31.003Z,-6.14
2019-01-21T09:25:32.743Z,-6.11
2019-01-21T09:28:43.959Z,-5.96
2019-01-21T09:31:46.645Z,-5.87
2019-01-21T09:35:03.396Z,-5.83
2019-01-21T09:38:21.390Z,-5.83
2019-01-21T09:41:36.333Z,-5.79
2019-01-21T09:44:38.156Z,-5.66
2019-01-21T09:47:07.670Z,-5.58
2019-01-21T09:49:37.153Z,-5.45
2019-01-21T09:52:10.452Z,-5.36
2019-01-21T09:54:42.812Z,-5.30
2019-01-21T09:57:21.435Z,-5.27
2019-01-21T09:59:59.823Z,-5.26
2019-01-21T10:02:50.959Z,-5.33
2019-01-21T10:05:23.851Z,-5.33
2019-01-21T10:08:21.982Z,-5.41
2019-01-21T10:11:40.784Z,-5.42
2019-01-21T10:15:01.619Z,-5.83
2019-01-21T10:18:17.566Z,-5.79
2019-01-21T10:21:56.708Z,-5.81
2019-01-21T10:25:08.631Z,-5.69
2019-01-21T10:28:11.473Z,-5.70
2019-01-21T10:31:04.523Z,-5.72
2019-01-21T10:34:33.300Z,-5.65
2019-01-21T10:37:41.308Z,-5.63
2019-01-21T10:40:54.091Z,-5.59
2019-01-21T10:43:53.253Z,-5.81
2019-01-21T10:46:55.117Z,-5.87
2019-01-21T10:50:01.781Z,-5.80
2019-01-21T10:52:54.852Z,-5.70
2019-01-21T10:56:00.540Z,-5.60
2019-01-21T10:59:15.554Z,-5.58
2019-01-21T11:02:20.695Z,-5.72
2019-01-21T11:05:15.735Z,-5.67
2019-01-21T11:08:30.675Z,-5.64
2019-01-21T11:12:03.761Z,-5.51
2019-01-21T11:14:56.421Z,-5.43
2019-01-21T11:18:05.676Z,-5.27
2019-01-21T11:21:12.134Z,-5.15
2019-01-21T11:24:48.540Z,-5.07
2019-01-21T11:27:56.273Z,-5.05
2019-01-21T11:30:55.274Z,-5.01
2019-01-21T11:34:19.617Z,-5.17
2019-01-21T11:37:03.989Z,-5.34
2019-01-21T11:40:30.241Z,-5.28
2019-01-21T11:43:38.185Z,-5.48
2019-01-21T11:46:34.237Z,-5.12
2019-01-21T11:49:39.099Z,-5.19
2019-01-21T11:52:38.686Z,-5.10
2019-01-21T11:55:54.904Z,-5.01
2019-01-21T11:59:15.886Z,-4.92
2019-01-21T12:02:33.118Z,-4.82
2019-01-21T12:05:48.275Z,-4.84
2019-01-21T12:09:01.891Z,-5.22
2019-01-21T12:12:09.513Z,-5.12
2019-01-21T12:15:20.308Z,-5.04
2019-01-21T12:18:21.674Z,-5.19
2019-01-21T12:21:36.075Z,-4.99
2019-01-21T12:24:20.321Z,-4.99
2019-01-21T12:27:27.105Z,-4.93
2019-01-21T12:30:37.876Z,-4.81
2019-01-21T12:33:40.872Z,-4.79
2019-01-21T12:36:41.489Z,-4.65
2019-01-21T12:39:43.320Z,-4.53
2019-01-21T12:42:57.507Z,-4.51
2019-01-21T12:45:57.050Z,-4.50
2019-01-21T12:49:00.945Z,-4.35
2019-01-21T12:52:18.658Z,-4.28
2019-01-21T12:55:39.618Z,-4.34
2019-01-21T12:58:35.938Z,-4.53
2019-01-21T13:01:48.701Z,-4.52
2019-01-21T13:05:00.204Z,-4.35
2019-01-21T13:08:11.912Z,-4.24
2019-01-21T13:11:30.229Z,-4.21
2019-01-21T13:14:26.495Z,-4.28
2019-01-21T13:17:25.956Z,-4.27
2019-01-21T13:20:42.580Z,-4.34
2019-01-21T13:23:24.261Z,-4.38
2019-01-21T13:26:35.200Z,-4.53
2019-01-21T13:29:55.464Z,-4.39
2019-01-21T13:33:00.054Z,-4.51
2019-01-21T13:36:24.270Z,-4.51
2019-01-21T13:39:12.639Z,-4.47
2019-01-21T13:41:49.777Z,-4.35
2019-01-21T13:44:47.453Z,-4.35
2019-01-21T13:47:49.888Z,-4.22
2019-01-21T13:50:30.226Z,-4.38
2019-01-21T13:53:45.126Z,-4.30
2019-01-21T13:57:09.383Z,-4.27
2019-01-21T14:00:24.630Z,-4.18
2019-01-21T14:03:22.931Z,-4.17
2019-01-21T14:06:29.954Z,-4.07
2019-01-21T14:09:54.329Z,-4.08
2019-01-21T14:12:35.522Z,-3.98
2019-01-21T14:15:43.318Z,-3.95
2019-01-21T14:18:54.451Z,-3.89
2019-01-21T14:22:18.891Z,-4.02
2019-01-21T14:25:23.693Z,-3.99
2019-01-21T14:28:24.130Z,-4.16
2019-01-21T14:31:36.692Z,-4.13
2019-01-21T14:34:49.630Z,-4.05
2019-01-21T14:37:38.103Z,-4.12
2019-01-21T14:40:40.850Z,-4.14
2019-01-21T14:43:52.384Z,-4.35
2019-01-21T14:47:15.761Z,-4.31
2019-01-21T14:50:20.806Z,-4.51
2019-01-21T14:53:13.122Z,-4.66
2019-01-21T14:56:02.735Z,-4.60
2019-01-21T14:59:19.774Z,-4.67
2019-01-21T15:02:28.590Z,-4.71
2019-01-21T15:05:35.965Z,-4.95
2019-01-21T15:08:19.829Z,-4.94
2019-01-21T15:11:39.412Z,-4.98
2019-01-21T15:14:51.308Z,-5.13
2019-01-21T15:17:50.752Z,-5.09
2019-01-21T15:20:47.133Z,-5.20
2019-01-21T15:23:49.707Z,-5.23
2019-01-21T15:26:30.687Z,-5.24
2019-01-21T15:29:38.789Z,-5.20
2019-01-21T15:32:23.891Z,-5.20
2019-01-21T15:35:24.291Z,-5.20
2019-01-21T15:38:45.521Z,-5.31
2019-01-21T15:42:02.193Z,-5.28
2019-01-21T15:45:19.128Z,-5.24
2019-01-21T15:48:25.817Z,-5.36
2019-01-21T15:54:42.380Z,-5.28
2019-01-21T15:57:47.134Z,-5.26
2019-01-21T16:00:52.231Z,-5.31
2019-01-21T16:03:42.739Z,-5.24
2019-01-21T16:06:40.342Z,-5.18
2019-01-21T16:09:59.964Z,-5.17
2019-01-21T16:13:14.946Z,-5.17
2019-01-21T16:16:31.736Z,-5.24
2019-01-21T16:19:10.967Z,-5.20
2019-01-21T16:22:18.438Z,-5.14
2019-01-21T16:25:01.051Z,-5.21
2019-01-21T16:28:07.803Z,-5.17
2019-01-21T16:31:25.786Z,-5.20
2019-01-21T16:34:38.602Z,-5.17
2019-01-21T16:37:34.112Z,-5.07
2019-01-21T16:41:00.570Z,-5.07
2019-01-21T16:43:32.209Z,-5.10
2019-01-21T16:46:03.626Z,-5.11
2019-01-21T16:48:36.791Z,-5.06
2019-01-21T16:51:07.927Z,-5.10
2019-01-21T16:53:39.006Z,-5.12
2019-01-21T16:56:11.086Z,-5.08
2019-01-21T16:58:42.696Z,-5.03
2019-01-21T17:01:15.072Z,-5.07
2019-01-21T17:03:46.806Z,-5.10
2019-01-21T17:06:19.204Z,-5.13
2019-01-21T17:08:52.028Z,-5.17
2019-01-21T17:11:24.547Z,-5.12
2019-01-21T17:13:55.847Z,-5.13
2019-01-21T17:16:26.886Z,-5.21
2019-01-21T17:18:57.955Z,-5.22
2019-01-21T17:21:29.008Z,-5.18
2019-01-21T17:24:00.008Z,-5.19
2019-01-21T17:26:31.019Z,-5.18
2019-01-21T17:29:02.007Z,-5.23
2019-01-21T17:31:33.225Z,-5.17
2019-01-21T17:34:04.596Z,-5.20
2019-01-21T17:36:35.768Z,-5.22
2019-01-21T17:39:09.146Z,-5.22
2019-01-21T17:41:40.482Z,-5.26
2019-01-21T17:44:11.561Z,-5.34
2019-01-21T17:46:42.652Z,-5.30
2019-01-21T17:49:13.790Z,-5.29
2019-01-21T17:51:44.867Z,-5.30
2019-01-21T17:54:15.912Z,-5.30
2019-01-21T17:56:49.801Z,-5.32
2019-01-21T17:59:21.039Z,-5.34
2019-01-21T18:01:52.832Z,-5.33
2019-01-21T18:04:24.941Z,-5.28
2019-01-21T18:06:56.281Z,-5.25
2019-01-21T18:09:28.237Z,-5.36
2019-01-21T18:11:59.459Z,-5.27
2019-01-21T18:14:33.403Z,-5.30
2019-01-21T18:17:07.351Z,-5.30
2019-01-21T18:19:39.292Z,-5.29
2019-01-21T18:22:12.561Z,-5.39
2019-01-21T18:24:44.915Z,-5.32
2019-01-21T18:27:20.865Z,-5.39
2019-01-21T18:29:51.980Z,-5.37
2019-01-21T18:32:24.062Z,-5.33
2019-01-21T18:34:56.238Z,-5.35
2019-01-21T18:37:27.384Z,-5.34
2019-01-21T18:39:58.487Z,-5.33
2019-01-21T18:42:29.815Z,-5.31
2019-01-21T18:45:01.122Z,-5.27
2019-01-21T18:47:32.134Z,-5.27
2019-01-21T18:50:03.257Z,-5.27
2019-01-21T18:52:34.255Z,-5.28
2019-01-21T18:55:06.334Z,-5.31
2019-01-21T18:57:37.362Z,-5.26
2019-01-21T19:00:12.308Z,-5.24
2019-01-21T19:02:59.562Z,-5.21
2019-01-21T19:05:31.090Z,-5.20
2019-01-21T19:08:02.069Z,-5.23
2019-01-21T19:10:33.048Z,-5.28
2019-01-21T19:13:04.136Z,-5.25
2019-01-21T19:15:35.171Z,-5.24
2019-01-21T19:18:06.362Z,-5.29
2019-01-21T19:20:37.419Z,-5.34
2019-01-21T19:23:08.633Z,-5.37
2019-01-21T19:25:40.242Z,-5.44
2019-01-21T19:28:11.312Z,-5.34
2019-01-21T19:30:42.509Z,-5.33
2019-01-21T19:33:13.623Z,-5.42
2019-01-21T19:35:45.125Z,-5.37
2019-01-21T19:38:16.425Z,-5.43
2019-01-21T19:40:47.598Z,-5.36
2019-01-21T19:43:18.712Z,-5.35
2019-01-21T19:45:49.926Z,-5.33
2019-01-21T19:48:21.039Z,-5.29
2019-01-21T19:50:52.090Z,-5.41
2019-01-21T19:53:23.502Z,-5.40
2019-01-21T19:55:54.986Z,-5.37
2019-01-21T19:58:26.301Z,-5.36
2019-01-21T20:00:57.321Z,-5.45
2019-01-21T20:03:29.303Z,-5.34
2019-01-21T20:06:00.539Z,-5.38
2019-01-21T20:08:32.805Z,-5.33
2019-01-21T20:11:04.903Z,-5.31
2019-01-21T20:13:41.644Z,-5.26
2019-01-21T20:16:12.758Z,-5.25
2019-01-21T20:18:44.273Z,-5.33
2019-01-21T20:21:16.578Z,-5.44
2019-01-21T20:23:50.015Z,-5.33
2019-01-21T20:26:22.109Z,-5.32
2019-01-21T20:28:53.387Z,-5.35
2019-01-21T20:31:24.501Z,-5.43
2019-01-21T20:33:58.356Z,-5.41
2019-01-21T20:36:30.637Z,-5.34
2019-01-21T20:39:02.605Z,-5.30
2019-01-21T20:41:35.745Z,-5.30
2019-01-21T20:44:07.597Z,-5.26
2019-01-21T20:46:39.830Z,-5.23
2019-01-21T20:49:10.983Z,-5.28
2019-01-21T20:51:42.638Z,-5.36
2019-01-21T20:54:15.993Z,-5.36
2019-01-21T20:56:48.943Z,-5.32
2019-01-21T20:59:20.718Z,-5.31
2019-01-21T21:01:54.311Z,-5.33
2019-01-21T21:04:25.443Z,-5.30
2019-01-21T21:06:59.410Z,-5.39
2019-01-21T21:09:31.552Z,-5.47
2019-01-21T21:12:03.409Z,-5.37
2019-01-21T21:14:35.728Z,-5.33
2019-01-21T21:17:08.790Z,-5.31
2019-01-21T21:19:42.923Z,-5.28
2019-01-21T21:22:21.032Z,-5.40
2019-01-21T21:24:52.949Z,-5.44
2019-01-21T21:27:25.415Z,-5.55
2019-01-21T21:30:00.279Z,-5.49
2019-01-21T21:32:32.366Z,-5.46
2019-01-21T21:35:08.190Z,-5.42
2019-01-21T21:37:44.394Z,-5.41
2019-01-21T21:40:17.606Z,-5.44
2019-01-21T21:42:57.187Z,-5.43
2019-01-21T21:45:28.509Z,-5.37
2019-01-21T21:48:03.019Z,-5.37
2019-01-21T21:50:39.991Z,-5.42
2019-01-21T21:53:11.495Z,-5.45
2019-01-21T21:55:47.094Z,-5.43
2019-01-21T21:58:23.170Z,-5.37
2019-01-21T22:01:02.059Z,-5.40
2019-01-21T22:03:40.423Z,-5.48
2019-01-21T22:06:13.356Z,-5.56
2019-01-21T22:08:47.104Z,-5.52
2019-01-21T22:11:22.426Z,-5.53
2019-01-21T22:13:57.194Z,-5.50
2019-01-21T22:16:29.458Z,-5.47
2019-01-21T22:19:06.328Z,-5.48
2019-01-21T22:21:38.800Z,-5.48
2019-01-21T22:24:12.305Z,-5.55
2019-01-21T22:26:46.280Z,-5.60
2019-01-21T22:29:21.387Z,-5.60
2019-01-21T22:31:55.910Z,-5.67
2019-01-21T22:34:28.742Z,-5.61
2019-01-21T22:37:02.134Z,-5.59
2019-01-21T22:39:38.898Z,-5.56
2019-01-21T22:42:15.301Z,-5.65
2019-01-21T22:44:51.005Z,-5.65
2019-01-21T22:47:23.369Z,-5.85
2019-01-21T22:49:54.983Z,-5.90
2019-01-21T22:52:26.076Z,-5.95
2019-01-21T22:55:01.345Z,-6.03
2019-01-21T22:57:32.742Z,-5.95
2019-01-21T23:00:11.146Z,-5.86
2019-01-21T23:02:46.059Z,-5.80
2019-01-21T23:05:21.654Z,-5.89
2019-01-21T23:07:55.950Z,-5.88
2019-01-21T23:10:27.955Z,-5.82
2019-01-21T23:12:59.420Z,-5.79
2019-01-21T23:15:32.611Z,-5.83
2019-01-21T23:18:04.521Z,-5.85
2019-01-21T23:20:38.181Z,-5.81
2019-01-21T23:23:10.913Z,-5.79
2019-01-21T23:25:44.626Z,-5.80
2019-01-21T23:28:16.765Z,-5.78
2019-01-21T23:30:53.787Z,-5.82
2019-01-21T23:33:26.110Z,-5.87
2019-01-21T23:35:59.986Z,-5.85
2019-01-21T23:38:32.714Z,-5.87
2019-01-21T23:41:04.294Z,-5.83
2019-01-21T23:43:35.746Z,-5.74
2019-01-21T23:46:08.905Z,-5.70
2019-01-21T23:48:41.151Z,-5.75
2019-01-21T23:51:14.505Z,-5.72
2019-01-21T23:53:49.570Z,-5.75
2019-01-21T23:56:23.255Z,-5.72
2019-01-21T23:58:56.272Z,-5.78
